sensor_id;sensor_type;location;lat;lon;timestamp;P1;durP1;ratioP1;P2;durP2;ratioP2
60169;SDS011;46042;49.444;6.862;2023-07-02T00:00:00;8.02;;;4.60;;
60169;SDS011;46042;49.444;6.862;2023-07-02T00:02:27;13.88;;;5.35;;
60169;SDS011;46042;49.444;6.862;2023-07-02T00:04:54;9.93;;;4.30;;
60169;SDS011;46042;49.444;6.862;2023-07-02T00:07:21;13.20;;;4.72;;
60169;SDS011;46042;49.444;6.862;2023-07-02T00:09:48;12.48;;;5.72;;
60169;SDS011;46042;49.444;6.862;2023-07-02T00:12:15;12.55;;;4.45;;
60169;SDS011;46042;49.444;6.862;2023-07-02T00:14:42;9.73;;;5.72;;
60169;SDS011;46042;49.444;6.862;2023-07-02T00:17:08;15.43;;;4.40;;
60169;SDS011;46042;49.444;6.862;2023-07-02T00:19:39;15.63;;;4.32;;
60169;SDS011;46042;49.444;6.862;2023-07-02T00:22:08;11.07;;;3.88;;
60169;SDS011;46042;49.444;6.862;2023-07-02T00:24:36;10.50;;;3.75;;
60169;SDS011;46042;49.444;6.862;2023-07-02T00:27:03;8.50;;;3.97;;
60169;SDS011;46042;49.444;6.862;2023-07-02T00:29:30;9.02;;;4.05;;
60169;SDS011;46042;49.444;6.862;2023-07-02T00:31:57;13.75;;;3.92;;
60169;SDS011;46042;49.444;6.862;2023-07-02T00:34:24;10.27;;;4.70;;
60169;SDS011;46042;49.444;6.862;2023-07-02T00:36:51;10.73;;;4.10;;
60169;SDS011;46042;49.444;6.862;2023-07-02T00:39:18;11.18;;;3.90;;
60169;SDS011;46042;49.444;6.862;2023-07-02T00:41:45;8.02;;;3.97;;
60169;SDS011;46042;49.444;6.862;2023-07-02T00:44:15;11.30;;;4.20;;
60169;SDS011;46042;49.444;6.862;2023-07-02T00:46:42;12.75;;;4.28;;
60169;SDS011;46042;49.444;6.862;2023-07-02T00:49:09;12.52;;;5.20;;
60169;SDS011;46042;49.444;6.862;2023-07-02T00:51:36;20.77;;;4.55;;
60169;SDS011;46042;49.444;6.862;2023-07-02T00:54:04;14.18;;;4.78;;
60169;SDS011;46042;49.444;6.862;2023-07-02T00:56:31;15.75;;;4.60;;
60169;SDS011;46042;49.444;6.862;2023-07-02T00:58:58;16.70;;;4.82;;
60169;SDS011;46042;49.444;6.862;2023-07-02T01:01:25;10.93;;;5.00;;
60169;SDS011;46042;49.444;6.862;2023-07-02T01:03:58;12.23;;;4.40;;
60169;SDS011;46042;49.444;6.862;2023-07-02T01:06:30;17.80;;;4.68;;
60169;SDS011;46042;49.444;6.862;2023-07-02T01:08:59;25.05;;;6.88;;
60169;SDS011;46042;49.444;6.862;2023-07-02T01:11:30;21.33;;;5.93;;
60169;SDS011;46042;49.444;6.862;2023-07-02T01:14:44;17.67;;;4.45;;
60169;SDS011;46042;49.444;6.862;2023-07-02T01:16:49;12.77;;;4.47;;
60169;SDS011;46042;49.444;6.862;2023-07-02T01:19:20;10.13;;;4.85;;
60169;SDS011;46042;49.444;6.862;2023-07-02T01:21:48;12.15;;;4.93;;
60169;SDS011;46042;49.444;6.862;2023-07-02T01:24:16;11.13;;;4.72;;
60169;SDS011;46042;49.444;6.862;2023-07-02T01:26:44;11.77;;;4.88;;
60169;SDS011;46042;49.444;6.862;2023-07-02T01:29:15;17.40;;;5.68;;
60169;SDS011;46042;49.444;6.862;2023-07-02T01:34:09;17.60;;;6.50;;
60169;SDS011;46042;49.444;6.862;2023-07-02T01:36:39;22.00;;;6.88;;
60169;SDS011;46042;49.444;6.862;2023-07-02T01:39:06;12.50;;;5.70;;
60169;SDS011;46042;49.444;6.862;2023-07-02T01:41:41;14.32;;;5.53;;
60169;SDS011;46042;49.444;6.862;2023-07-02T01:44:10;16.20;;;5.60;;
60169;SDS011;46042;49.444;6.862;2023-07-02T01:46:37;14.48;;;5.30;;
60169;SDS011;46042;49.444;6.862;2023-07-02T01:49:04;18.85;;;5.75;;
60169;SDS011;46042;49.444;6.862;2023-07-02T01:51:31;18.27;;;6.47;;
60169;SDS011;46042;49.444;6.862;2023-07-02T01:53:58;12.65;;;5.32;;
60169;SDS011;46042;49.444;6.862;2023-07-02T01:56:25;22.88;;;6.13;;
60169;SDS011;46042;49.444;6.862;2023-07-02T01:58:52;12.93;;;5.53;;
60169;SDS011;46042;49.444;6.862;2023-07-02T02:01:19;15.70;;;5.88;;
60169;SDS011;46042;49.444;6.862;2023-07-02T02:03:46;19.33;;;5.68;;
60169;SDS011;46042;49.444;6.862;2023-07-02T02:06:13;12.43;;;5.70;;
60169;SDS011;46042;49.444;6.862;2023-07-02T02:08:39;15.07;;;5.80;;
60169;SDS011;46042;49.444;6.862;2023-07-02T02:11:06;14.25;;;5.57;;
60169;SDS011;46042;49.444;6.862;2023-07-02T02:13:33;20.33;;;5.75;;
60169;SDS011;46042;49.444;6.862;2023-07-02T02:15:59;15.95;;;6.05;;
60169;SDS011;46042;49.444;6.862;2023-07-02T02:18:26;22.50;;;6.82;;
60169;SDS011;46042;49.444;6.862;2023-07-02T02:20:53;20.08;;;6.53;;
60169;SDS011;46042;49.444;6.862;2023-07-02T02:23:20;21.65;;;6.55;;
60169;SDS011;46042;49.444;6.862;2023-07-02T02:25:47;21.80;;;7.05;;
60169;SDS011;46042;49.444;6.862;2023-07-02T02:28:13;19.95;;;7.10;;
60169;SDS011;46042;49.444;6.862;2023-07-02T02:30:40;15.43;;;6.50;;
60169;SDS011;46042;49.444;6.862;2023-07-02T02:33:06;16.33;;;6.55;;
60169;SDS011;46042;49.444;6.862;2023-07-02T02:35:35;19.23;;;6.30;;
60169;SDS011;46042;49.444;6.862;2023-07-02T02:38:02;14.90;;;6.43;;
60169;SDS011;46042;49.444;6.862;2023-07-02T02:40:29;22.15;;;8.07;;
60169;SDS011;46042;49.444;6.862;2023-07-02T02:42:56;19.08;;;8.05;;
60169;SDS011;46042;49.444;6.862;2023-07-02T02:45:23;17.95;;;7.13;;
60169;SDS011;46042;49.444;6.862;2023-07-02T02:47:51;20.92;;;6.85;;
60169;SDS011;46042;49.444;6.862;2023-07-02T02:50:18;17.85;;;6.95;;
60169;SDS011;46042;49.444;6.862;2023-07-02T02:52:46;21.67;;;7.40;;
60169;SDS011;46042;49.444;6.862;2023-07-02T02:55:12;20.15;;;7.38;;
60169;SDS011;46042;49.444;6.862;2023-07-02T02:57:39;34.55;;;7.15;;
60169;SDS011;46042;49.444;6.862;2023-07-02T03:00:06;27.80;;;8.30;;
60169;SDS011;46042;49.444;6.862;2023-07-02T03:02:35;22.13;;;8.50;;
60169;SDS011;46042;49.444;6.862;2023-07-02T03:05:04;24.25;;;8.43;;
60169;SDS011;46042;49.444;6.862;2023-07-02T03:07:32;18.98;;;8.05;;
60169;SDS011;46042;49.444;6.862;2023-07-02T03:10:00;20.00;;;7.43;;
60169;SDS011;46042;49.444;6.862;2023-07-02T03:12:27;29.00;;;8.45;;
60169;SDS011;46042;49.444;6.862;2023-07-02T03:14:54;18.40;;;7.22;;
60169;SDS011;46042;49.444;6.862;2023-07-02T03:17:21;24.60;;;7.45;;
60169;SDS011;46042;49.444;6.862;2023-07-02T03:19:49;15.55;;;7.13;;
60169;SDS011;46042;49.444;6.862;2023-07-02T03:22:16;20.75;;;6.43;;
60169;SDS011;46042;49.444;6.862;2023-07-02T03:24:42;33.22;;;7.57;;
60169;SDS011;46042;49.444;6.862;2023-07-02T03:27:09;22.77;;;7.10;;
60169;SDS011;46042;49.444;6.862;2023-07-02T03:29:36;26.80;;;7.85;;
60169;SDS011;46042;49.444;6.862;2023-07-02T03:32:04;21.80;;;7.47;;
60169;SDS011;46042;49.444;6.862;2023-07-02T03:34:32;21.17;;;7.57;;
60169;SDS011;46042;49.444;6.862;2023-07-02T03:36:59;21.10;;;7.20;;
60169;SDS011;46042;49.444;6.862;2023-07-02T03:39:25;20.98;;;8.00;;
60169;SDS011;46042;49.444;6.862;2023-07-02T03:41:53;19.98;;;7.03;;
60169;SDS011;46042;49.444;6.862;2023-07-02T03:44:19;23.75;;;7.65;;
60169;SDS011;46042;49.444;6.862;2023-07-02T03:46:46;33.15;;;8.55;;
60169;SDS011;46042;49.444;6.862;2023-07-02T03:49:13;19.55;;;7.30;;
60169;SDS011;46042;49.444;6.862;2023-07-02T03:51:39;23.60;;;7.97;;
60169;SDS011;46042;49.444;6.862;2023-07-02T03:54:06;21.38;;;9.48;;
60169;SDS011;46042;49.444;6.862;2023-07-02T03:56:33;25.20;;;8.70;;
60169;SDS011;46042;49.444;6.862;2023-07-02T03:59:00;28.77;;;9.07;;
60169;SDS011;46042;49.444;6.862;2023-07-02T04:01:26;20.92;;;8.10;;
60169;SDS011;46042;49.444;6.862;2023-07-02T04:03:53;26.23;;;9.20;;
60169;SDS011;46042;49.444;6.862;2023-07-02T04:06:21;15.93;;;7.55;;
60169;SDS011;46042;49.444;6.862;2023-07-02T04:08:47;22.67;;;7.90;;
60169;SDS011;46042;49.444;6.862;2023-07-02T04:11:14;22.13;;;8.50;;
60169;SDS011;46042;49.444;6.862;2023-07-02T04:13:41;21.13;;;8.73;;
60169;SDS011;46042;49.444;6.862;2023-07-02T04:16:07;25.70;;;7.38;;
60169;SDS011;46042;49.444;6.862;2023-07-02T04:18:34;26.17;;;8.50;;
60169;SDS011;46042;49.444;6.862;2023-07-02T04:21:01;26.65;;;7.57;;
60169;SDS011;46042;49.444;6.862;2023-07-02T04:23:28;22.35;;;8.43;;
60169;SDS011;46042;49.444;6.862;2023-07-02T04:25:55;22.35;;;7.10;;
60169;SDS011;46042;49.444;6.862;2023-07-02T04:28:42;18.60;;;6.90;;
60169;SDS011;46042;49.444;6.862;2023-07-02T04:31:08;25.70;;;7.45;;
60169;SDS011;46042;49.444;6.862;2023-07-02T04:33:35;21.70;;;8.13;;
60169;SDS011;46042;49.444;6.862;2023-07-02T04:36:03;23.35;;;8.20;;
60169;SDS011;46042;49.444;6.862;2023-07-02T04:38:30;22.35;;;8.35;;
60169;SDS011;46042;49.444;6.862;2023-07-02T04:40:57;22.35;;;8.73;;
60169;SDS011;46042;49.444;6.862;2023-07-02T04:43:27;18.85;;;7.07;;
60169;SDS011;46042;49.444;6.862;2023-07-02T04:45:57;18.02;;;7.00;;
60169;SDS011;46042;49.444;6.862;2023-07-02T04:48:24;24.23;;;7.88;;
60169;SDS011;46042;49.444;6.862;2023-07-02T04:50:51;21.20;;;7.68;;
60169;SDS011;46042;49.444;6.862;2023-07-02T04:53:18;19.67;;;7.32;;
60169;SDS011;46042;49.444;6.862;2023-07-02T04:55:44;19.00;;;8.27;;
60169;SDS011;46042;49.444;6.862;2023-07-02T04:58:11;20.98;;;9.05;;
60169;SDS011;46042;49.444;6.862;2023-07-02T05:00:38;23.90;;;9.13;;
60169;SDS011;46042;49.444;6.862;2023-07-02T05:03:05;29.33;;;9.60;;
60169;SDS011;46042;49.444;6.862;2023-07-02T05:05:31;22.50;;;8.65;;
60169;SDS011;46042;49.444;6.862;2023-07-02T05:07:58;22.00;;;9.18;;
60169;SDS011;46042;49.444;6.862;2023-07-02T05:10:25;28.33;;;10.07;;
60169;SDS011;46042;49.444;6.862;2023-07-02T05:12:51;25.90;;;10.07;;
60169;SDS011;46042;49.444;6.862;2023-07-02T05:15:18;31.02;;;9.38;;
60169;SDS011;46042;49.444;6.862;2023-07-02T05:17:45;31.58;;;9.95;;
60169;SDS011;46042;49.444;6.862;2023-07-02T05:20:11;28.88;;;10.50;;
60169;SDS011;46042;49.444;6.862;2023-07-02T05:22:38;30.20;;;11.50;;
60169;SDS011;46042;49.444;6.862;2023-07-02T05:25:05;26.42;;;10.60;;
60169;SDS011;46042;49.444;6.862;2023-07-02T05:27:32;23.55;;;9.98;;
60169;SDS011;46042;49.444;6.862;2023-07-02T05:29:59;36.90;;;11.65;;
60169;SDS011;46042;49.444;6.862;2023-07-02T05:32:25;32.72;;;12.25;;
60169;SDS011;46042;49.444;6.862;2023-07-02T05:34:52;47.70;;;14.20;;
60169;SDS011;46042;49.444;6.862;2023-07-02T05:37:19;47.55;;;16.00;;
60169;SDS011;46042;49.444;6.862;2023-07-02T05:39:45;44.15;;;15.45;;
60169;SDS011;46042;49.444;6.862;2023-07-02T05:42:12;38.90;;;14.43;;
60169;SDS011;46042;49.444;6.862;2023-07-02T05:44:39;33.78;;;13.48;;
60169;SDS011;46042;49.444;6.862;2023-07-02T05:47:05;44.63;;;13.73;;
60169;SDS011;46042;49.444;6.862;2023-07-02T05:49:32;42.65;;;14.65;;
60169;SDS011;46042;49.444;6.862;2023-07-02T05:51:59;55.97;;;16.92;;
60169;SDS011;46042;49.444;6.862;2023-07-02T05:54:25;42.92;;;15.20;;
60169;SDS011;46042;49.444;6.862;2023-07-02T05:56:52;45.42;;;15.93;;
60169;SDS011;46042;49.444;6.862;2023-07-02T05:59:19;49.05;;;16.25;;
60169;SDS011;46042;49.444;6.862;2023-07-02T06:01:46;40.75;;;15.93;;
60169;SDS011;46042;49.444;6.862;2023-07-02T06:04:13;52.38;;;16.98;;
60169;SDS011;46042;49.444;6.862;2023-07-02T06:06:40;44.58;;;16.15;;
60169;SDS011;46042;49.444;6.862;2023-07-02T06:09:07;50.25;;;17.77;;
60169;SDS011;46042;49.444;6.862;2023-07-02T06:11:34;49.22;;;16.60;;
60169;SDS011;46042;49.444;6.862;2023-07-02T06:14:02;42.00;;;17.10;;
60169;SDS011;46042;49.444;6.862;2023-07-02T06:16:29;58.78;;;18.70;;
60169;SDS011;46042;49.444;6.862;2023-07-02T06:18:56;53.83;;;18.40;;
60169;SDS011;46042;49.444;6.862;2023-07-02T06:21:23;53.88;;;18.30;;
60169;SDS011;46042;49.444;6.862;2023-07-02T06:23:56;54.13;;;19.90;;
60169;SDS011;46042;49.444;6.862;2023-07-02T06:26:24;52.67;;;18.98;;
60169;SDS011;46042;49.444;6.862;2023-07-02T06:28:50;58.95;;;19.17;;
60169;SDS011;46042;49.444;6.862;2023-07-02T06:31:17;50.65;;;19.73;;
60169;SDS011;46042;49.444;6.862;2023-07-02T06:33:44;51.42;;;20.40;;
60169;SDS011;46042;49.444;6.862;2023-07-02T06:36:11;65.05;;;20.08;;
60169;SDS011;46042;49.444;6.862;2023-07-02T06:38:43;53.63;;;21.50;;
60169;SDS011;46042;49.444;6.862;2023-07-02T06:41:10;56.60;;;20.33;;
60169;SDS011;46042;49.444;6.862;2023-07-02T06:43:36;67.57;;;22.45;;
60169;SDS011;46042;49.444;6.862;2023-07-02T06:46:03;54.50;;;21.60;;
60169;SDS011;46042;49.444;6.862;2023-07-02T06:48:30;63.47;;;20.95;;
60169;SDS011;46042;49.444;6.862;2023-07-02T06:50:57;63.33;;;21.35;;
60169;SDS011;46042;49.444;6.862;2023-07-02T06:53:23;66.20;;;21.13;;
60169;SDS011;46042;49.444;6.862;2023-07-02T06:55:50;64.53;;;22.13;;
60169;SDS011;46042;49.444;6.862;2023-07-02T06:58:17;57.38;;;22.02;;
60169;SDS011;46042;49.444;6.862;2023-07-02T07:00:46;65.03;;;21.20;;
60169;SDS011;46042;49.444;6.862;2023-07-02T07:03:14;52.75;;;20.65;;
60169;SDS011;46042;49.444;6.862;2023-07-02T07:05:40;51.60;;;21.35;;
60169;SDS011;46042;49.444;6.862;2023-07-02T07:08:07;67.70;;;23.25;;
60169;SDS011;46042;49.444;6.862;2023-07-02T07:10:34;56.60;;;21.95;;
60169;SDS011;46042;49.444;6.862;2023-07-02T07:13:01;55.10;;;21.55;;
60169;SDS011;46042;49.444;6.862;2023-07-02T07:15:30;60.63;;;22.60;;
60169;SDS011;46042;49.444;6.862;2023-07-02T07:18:03;66.45;;;22.48;;
60169;SDS011;46042;49.444;6.862;2023-07-02T07:20:30;58.92;;;21.60;;
60169;SDS011;46042;49.444;6.862;2023-07-02T07:22:57;62.88;;;22.50;;
60169;SDS011;46042;49.444;6.862;2023-07-02T07:25:24;62.88;;;22.80;;
60169;SDS011;46042;49.444;6.862;2023-07-02T07:27:51;61.92;;;22.50;;
60169;SDS011;46042;49.444;6.862;2023-07-02T07:30:18;69.18;;;25.20;;
60169;SDS011;46042;49.444;6.862;2023-07-02T07:32:50;60.28;;;22.55;;
60169;SDS011;46042;49.444;6.862;2023-07-02T07:35:20;82.82;;;22.90;;
60169;SDS011;46042;49.444;6.862;2023-07-02T07:37:48;59.70;;;21.08;;
60169;SDS011;46042;49.444;6.862;2023-07-02T07:40:15;61.00;;;21.45;;
60169;SDS011;46042;49.444;6.862;2023-07-02T07:42:42;60.03;;;21.73;;
60169;SDS011;46042;49.444;6.862;2023-07-02T07:45:10;64.15;;;21.92;;
60169;SDS011;46042;49.444;6.862;2023-07-02T07:47:38;59.63;;;22.38;;
60169;SDS011;46042;49.444;6.862;2023-07-02T07:50:06;68.35;;;23.10;;
60169;SDS011;46042;49.444;6.862;2023-07-02T07:52:37;52.03;;;22.83;;
60169;SDS011;46042;49.444;6.862;2023-07-02T07:55:05;53.83;;;21.77;;
60169;SDS011;46042;49.444;6.862;2023-07-02T07:57:34;62.75;;;22.75;;
60169;SDS011;46042;49.444;6.862;2023-07-02T08:00:02;64.50;;;23.20;;
60169;SDS011;46042;49.444;6.862;2023-07-02T08:02:38;62.42;;;22.10;;
60169;SDS011;46042;49.444;6.862;2023-07-02T08:05:07;71.50;;;23.45;;
60169;SDS011;46042;49.444;6.862;2023-07-02T08:07:34;60.75;;;23.50;;
60169;SDS011;46042;49.444;6.862;2023-07-02T08:10:01;62.50;;;23.55;;
60169;SDS011;46042;49.444;6.862;2023-07-02T08:12:29;62.85;;;22.58;;
60169;SDS011;46042;49.444;6.862;2023-07-02T08:14:56;52.58;;;20.27;;
60169;SDS011;46042;49.444;6.862;2023-07-02T08:17:23;50.28;;;20.70;;
60169;SDS011;46042;49.444;6.862;2023-07-02T08:19:50;59.97;;;22.00;;
60169;SDS011;46042;49.444;6.862;2023-07-02T08:22:16;56.55;;;21.70;;
60169;SDS011;46042;49.444;6.862;2023-07-02T08:24:43;50.55;;;21.30;;
60169;SDS011;46042;49.444;6.862;2023-07-02T08:27:10;59.22;;;21.17;;
60169;SDS011;46042;49.444;6.862;2023-07-02T08:29:41;55.00;;;20.95;;
60169;SDS011;46042;49.444;6.862;2023-07-02T08:32:07;48.00;;;20.23;;
60169;SDS011;46042;49.444;6.862;2023-07-02T08:34:34;50.90;;;20.30;;
60169;SDS011;46042;49.444;6.862;2023-07-02T08:37:01;63.78;;;21.98;;
60169;SDS011;46042;49.444;6.862;2023-07-02T08:39:27;45.67;;;18.63;;
60169;SDS011;46042;49.444;6.862;2023-07-02T08:41:54;47.90;;;19.77;;
60169;SDS011;46042;49.444;6.862;2023-07-02T08:44:21;54.15;;;19.50;;
60169;SDS011;46042;49.444;6.862;2023-07-02T08:46:48;45.65;;;18.13;;
60169;SDS011;46042;49.444;6.862;2023-07-02T08:49:17;44.17;;;17.80;;
60169;SDS011;46042;49.444;6.862;2023-07-02T08:51:44;55.15;;;19.10;;
60169;SDS011;46042;49.444;6.862;2023-07-02T08:54:12;49.75;;;19.33;;
60169;SDS011;46042;49.444;6.862;2023-07-02T08:56:39;46.22;;;18.65;;
60169;SDS011;46042;49.444;6.862;2023-07-02T08:59:09;46.50;;;19.95;;
60169;SDS011;46042;49.444;6.862;2023-07-02T09:01:46;50.13;;;19.80;;
60169;SDS011;46042;49.444;6.862;2023-07-02T09:04:23;52.92;;;19.90;;
60169;SDS011;46042;49.444;6.862;2023-07-02T09:07:02;44.40;;;19.10;;
60169;SDS011;46042;49.444;6.862;2023-07-02T09:09:30;52.72;;;19.77;;
60169;SDS011;46042;49.444;6.862;2023-07-02T09:11:57;52.65;;;17.50;;
60169;SDS011;46042;49.444;6.862;2023-07-02T09:17:02;57.63;;;19.65;;
60169;SDS011;46042;49.444;6.862;2023-07-02T09:19:30;50.75;;;20.52;;
60169;SDS011;46042;49.444;6.862;2023-07-02T09:21:58;38.70;;;18.58;;
60169;SDS011;46042;49.444;6.862;2023-07-02T09:24:30;41.20;;;18.08;;
60169;SDS011;46042;49.444;6.862;2023-07-02T09:26:58;50.05;;;18.30;;
60169;SDS011;46042;49.444;6.862;2023-07-02T09:31:58;44.40;;;18.85;;
60169;SDS011;46042;49.444;6.862;2023-07-02T09:34:36;51.13;;;18.63;;
60169;SDS011;46042;49.444;6.862;2023-07-02T09:37:05;49.50;;;18.65;;
60169;SDS011;46042;49.444;6.862;2023-07-02T09:39:33;44.95;;;18.52;;
60169;SDS011;46042;49.444;6.862;2023-07-02T09:42:02;42.40;;;17.23;;
60169;SDS011;46042;49.444;6.862;2023-07-02T09:44:33;49.22;;;18.60;;
60169;SDS011;46042;49.444;6.862;2023-07-02T09:49:31;47.72;;;19.90;;
60169;SDS011;46042;49.444;6.862;2023-07-02T09:54:33;53.22;;;19.38;;
60169;SDS011;46042;49.444;6.862;2023-07-02T09:57:00;46.85;;;19.77;;
60169;SDS011;46042;49.444;6.862;2023-07-02T09:59:28;45.25;;;19.17;;
60169;SDS011;46042;49.444;6.862;2023-07-02T10:01:55;43.97;;;19.08;;
60169;SDS011;46042;49.444;6.862;2023-07-02T10:04:23;49.65;;;17.98;;
60169;SDS011;46042;49.444;6.862;2023-07-02T10:06:56;47.50;;;19.40;;
60169;SDS011;46042;49.444;6.862;2023-07-02T10:12:14;42.22;;;18.42;;
60169;SDS011;46042;49.444;6.862;2023-07-02T10:14:57;41.40;;;18.42;;
60169;SDS011;46042;49.444;6.862;2023-07-02T10:19:58;43.53;;;16.80;;
60169;SDS011;46042;49.444;6.862;2023-07-02T10:22:27;47.60;;;17.60;;
60169;SDS011;46042;49.444;6.862;2023-07-02T10:24:57;40.40;;;17.10;;
60169;SDS011;46042;49.444;6.862;2023-07-02T10:27:38;42.45;;;17.65;;
60169;SDS011;46042;49.444;6.862;2023-07-02T10:30:06;38.38;;;16.33;;
60169;SDS011;46042;49.444;6.862;2023-07-02T10:32:36;39.05;;;17.25;;
60169;SDS011;46042;49.444;6.862;2023-07-02T10:37:44;38.15;;;15.85;;
60169;SDS011;46042;49.444;6.862;2023-07-02T10:40:12;43.78;;;16.95;;
60169;SDS011;46042;49.444;6.862;2023-07-02T10:42:46;37.83;;;17.50;;
60169;SDS011;46042;49.444;6.862;2023-07-02T10:45:16;38.85;;;16.40;;
60169;SDS011;46042;49.444;6.862;2023-07-02T10:47:44;38.88;;;16.85;;
60169;SDS011;46042;49.444;6.862;2023-07-02T10:50:15;46.40;;;17.48;;
60169;SDS011;46042;49.444;6.862;2023-07-02T10:52:46;38.88;;;16.20;;
60169;SDS011;46042;49.444;6.862;2023-07-02T10:55:20;39.90;;;16.80;;
60169;SDS011;46042;49.444;6.862;2023-07-02T10:57:47;38.70;;;16.35;;
60169;SDS011;46042;49.444;6.862;2023-07-02T11:00:17;46.03;;;17.33;;
60169;SDS011;46042;49.444;6.862;2023-07-02T11:02:44;37.35;;;16.80;;
60169;SDS011;46042;49.444;6.862;2023-07-02T11:05:11;43.28;;;16.25;;
60169;SDS011;46042;49.444;6.862;2023-07-02T11:07:39;39.00;;;18.50;;
60169;SDS011;46042;49.444;6.862;2023-07-02T11:10:09;40.33;;;17.27;;
60169;SDS011;46042;49.444;6.862;2023-07-02T11:12:43;41.63;;;16.85;;
60169;SDS011;46042;49.444;6.862;2023-07-02T11:15:10;34.38;;;16.65;;
60169;SDS011;46042;49.444;6.862;2023-07-02T11:17:40;34.70;;;15.68;;
60169;SDS011;46042;49.444;6.862;2023-07-02T11:20:08;43.40;;;16.52;;
60169;SDS011;46042;49.444;6.862;2023-07-02T11:25:12;35.47;;;15.80;;
60169;SDS011;46042;49.444;6.862;2023-07-02T11:27:40;39.58;;;16.73;;
60169;SDS011;46042;49.444;6.862;2023-07-02T11:30:07;37.35;;;15.35;;
60169;SDS011;46042;49.444;6.862;2023-07-02T11:32:46;32.10;;;15.18;;
60169;SDS011;46042;49.444;6.862;2023-07-02T11:35:15;35.38;;;16.15;;
60169;SDS011;46042;49.444;6.862;2023-07-02T11:37:43;30.83;;;13.85;;
60169;SDS011;46042;49.444;6.862;2023-07-02T11:40:10;35.10;;;14.77;;
60169;SDS011;46042;49.444;6.862;2023-07-02T11:42:37;30.15;;;15.23;;
60169;SDS011;46042;49.444;6.862;2023-07-02T11:45:04;34.58;;;15.40;;
60169;SDS011;46042;49.444;6.862;2023-07-02T11:47:31;40.63;;;15.75;;
60169;SDS011;46042;49.444;6.862;2023-07-02T11:49:58;30.25;;;14.52;;
60169;SDS011;46042;49.444;6.862;2023-07-02T11:52:46;38.60;;;14.65;;
60169;SDS011;46042;49.444;6.862;2023-07-02T11:55:13;37.97;;;14.57;;
60169;SDS011;46042;49.444;6.862;2023-07-02T11:57:41;40.00;;;15.98;;
60169;SDS011;46042;49.444;6.862;2023-07-02T12:00:08;39.22;;;15.00;;
60169;SDS011;46042;49.444;6.862;2023-07-02T12:02:35;34.08;;;15.27;;
60169;SDS011;46042;49.444;6.862;2023-07-02T12:05:02;31.02;;;14.40;;
60169;SDS011;46042;49.444;6.862;2023-07-02T12:07:32;35.38;;;16.60;;
60169;SDS011;46042;49.444;6.862;2023-07-02T12:10:00;38.45;;;16.70;;
60169;SDS011;46042;49.444;6.862;2023-07-02T12:12:27;39.08;;;16.15;;
60169;SDS011;46042;49.444;6.862;2023-07-02T12:14:54;39.80;;;15.02;;
60169;SDS011;46042;49.444;6.862;2023-07-02T12:17:20;35.90;;;15.15;;
60169;SDS011;46042;49.444;6.862;2023-07-02T12:19:47;42.80;;;15.55;;
60169;SDS011;46042;49.444;6.862;2023-07-02T12:22:14;35.28;;;15.35;;
60169;SDS011;46042;49.444;6.862;2023-07-02T12:24:44;40.17;;;15.50;;
60169;SDS011;46042;49.444;6.862;2023-07-02T12:27:11;28.35;;;13.27;;
60169;SDS011;46042;49.444;6.862;2023-07-02T12:29:37;30.17;;;14.07;;
60169;SDS011;46042;49.444;6.862;2023-07-02T12:32:04;27.08;;;12.85;;
60169;SDS011;46042;49.444;6.862;2023-07-02T12:34:31;34.15;;;14.35;;
60169;SDS011;46042;49.444;6.862;2023-07-02T12:36:58;31.77;;;15.68;;
60169;SDS011;46042;49.444;6.862;2023-07-02T12:39:25;32.90;;;15.88;;
60169;SDS011;46042;49.444;6.862;2023-07-02T12:41:53;32.60;;;14.70;;
60169;SDS011;46042;49.444;6.862;2023-07-02T12:44:19;32.28;;;14.73;;
60169;SDS011;46042;49.444;6.862;2023-07-02T12:46:47;32.85;;;13.55;;
60169;SDS011;46042;49.444;6.862;2023-07-02T12:49:14;28.85;;;14.25;;
60169;SDS011;46042;49.444;6.862;2023-07-02T12:51:40;32.05;;;15.00;;
60169;SDS011;46042;49.444;6.862;2023-07-02T12:54:07;32.33;;;14.55;;
60169;SDS011;46042;49.444;6.862;2023-07-02T12:56:34;33.33;;;14.68;;
60169;SDS011;46042;49.444;6.862;2023-07-02T12:59:01;30.40;;;16.00;;
60169;SDS011;46042;49.444;6.862;2023-07-02T13:01:28;35.83;;;15.18;;
60169;SDS011;46042;49.444;6.862;2023-07-02T13:03:55;35.67;;;14.60;;
60169;SDS011;46042;49.444;6.862;2023-07-02T13:06:22;30.23;;;14.40;;
60169;SDS011;46042;49.444;6.862;2023-07-02T13:08:49;27.90;;;13.93;;
60169;SDS011;46042;49.444;6.862;2023-07-02T13:11:16;32.60;;;14.18;;
60169;SDS011;46042;49.444;6.862;2023-07-02T13:13:42;32.95;;;15.13;;
60169;SDS011;46042;49.444;6.862;2023-07-02T13:16:09;31.58;;;14.48;;
60169;SDS011;46042;49.444;6.862;2023-07-02T13:18:36;44.92;;;14.45;;
60169;SDS011;46042;49.444;6.862;2023-07-02T13:21:02;30.23;;;14.52;;
60169;SDS011;46042;49.444;6.862;2023-07-02T13:23:29;33.65;;;14.23;;
60169;SDS011;46042;49.444;6.862;2023-07-02T13:25:55;30.85;;;14.57;;
60169;SDS011;46042;49.444;6.862;2023-07-02T13:28:22;31.55;;;14.07;;
60169;SDS011;46042;49.444;6.862;2023-07-02T13:30:51;28.30;;;14.18;;
60169;SDS011;46042;49.444;6.862;2023-07-02T13:33:18;29.75;;;13.93;;
60169;SDS011;46042;49.444;6.862;2023-07-02T13:35:44;35.45;;;15.07;;
60169;SDS011;46042;49.444;6.862;2023-07-02T13:38:12;28.10;;;14.27;;
60169;SDS011;46042;49.444;6.862;2023-07-02T13:40:39;31.98;;;15.10;;
60169;SDS011;46042;49.444;6.862;2023-07-02T13:43:05;30.92;;;14.40;;
60169;SDS011;46042;49.444;6.862;2023-07-02T13:45:33;32.47;;;14.85;;
60169;SDS011;46042;49.444;6.862;2023-07-02T13:48:00;32.95;;;14.98;;
60169;SDS011;46042;49.444;6.862;2023-07-02T13:50:27;36.35;;;14.10;;
60169;SDS011;46042;49.444;6.862;2023-07-02T13:52:54;32.10;;;15.32;;
60169;SDS011;46042;49.444;6.862;2023-07-02T13:55:21;29.67;;;14.57;;
60169;SDS011;46042;49.444;6.862;2023-07-02T13:57:54;33.92;;;15.23;;
60169;SDS011;46042;49.444;6.862;2023-07-02T14:00:23;29.52;;;13.65;;
60169;SDS011;46042;49.444;6.862;2023-07-02T14:02:50;33.55;;;14.13;;
60169;SDS011;46042;49.444;6.862;2023-07-02T14:05:17;29.33;;;12.88;;
60169;SDS011;46042;49.444;6.862;2023-07-02T14:07:44;29.27;;;14.00;;
60169;SDS011;46042;49.444;6.862;2023-07-02T14:10:11;32.80;;;14.70;;
60169;SDS011;46042;49.444;6.862;2023-07-02T14:12:39;31.77;;;14.60;;
60169;SDS011;46042;49.444;6.862;2023-07-02T14:15:06;30.42;;;14.18;;
60169;SDS011;46042;49.444;6.862;2023-07-02T14:17:34;30.42;;;14.02;;
60169;SDS011;46042;49.444;6.862;2023-07-02T14:20:01;30.35;;;13.43;;
60169;SDS011;46042;49.444;6.862;2023-07-02T14:22:30;31.88;;;13.77;;
60169;SDS011;46042;49.444;6.862;2023-07-02T14:24:56;27.70;;;13.10;;
60169;SDS011;46042;49.444;6.862;2023-07-02T14:27:24;26.58;;;14.57;;
60169;SDS011;46042;49.444;6.862;2023-07-02T14:29:50;29.30;;;13.63;;
60169;SDS011;46042;49.444;6.862;2023-07-02T14:32:17;29.33;;;14.18;;
60169;SDS011;46042;49.444;6.862;2023-07-02T14:34:44;26.67;;;13.55;;
60169;SDS011;46042;49.444;6.862;2023-07-02T14:37:11;29.58;;;13.05;;
60169;SDS011;46042;49.444;6.862;2023-07-02T14:39:37;27.15;;;13.05;;
60169;SDS011;46042;49.444;6.862;2023-07-02T14:42:07;33.42;;;12.93;;
60169;SDS011;46042;49.444;6.862;2023-07-02T14:44:33;26.58;;;12.25;;
60169;SDS011;46042;49.444;6.862;2023-07-02T14:47:02;24.30;;;12.63;;
60169;SDS011;46042;49.444;6.862;2023-07-02T14:49:29;25.75;;;12.40;;
60169;SDS011;46042;49.444;6.862;2023-07-02T14:51:55;31.85;;;13.13;;